Sao Paulo, Brazil
Current Conditions -  °F | °C
As of 11:00 PM on Thursday 30 Oct 2014 (Local Time) from SBMT Reporting Station
Clear Clear  
Wind Chill: 81°   Ceiling: Unl
Heat Index: 81°   Visibility: 6mi
Dew Point: 54°   Wind: 9mph
Humidity: 39%   Direction: 90°E
Pressure: 29.94"   Gusts: NA
Location:  23.53°S, 46.63°W
Report Text: SBMT 310100Z 09008KT CAVOK 27/12 Q1014
Loading
Personal Weather Stations






























Interactive Weather Map
Tropical Storm Tracking
New forecast layout! Learn more

10-Day Weather Forecast

Advertisements
Track Severe Weather on mobile